createdAt,value
2022-11-14T00:01:32.926Z,4.00
2022-11-14T00:04:01.673Z,4.10
2022-11-14T00:06:30.332Z,4.20
2022-11-14T00:08:58.987Z,4.30
2022-11-14T00:11:27.720Z,4.40
2022-11-14T00:13:56.346Z,4.40
2022-11-14T00:16:26.542Z,4.50
2022-11-14T00:18:55.214Z,4.30
2022-11-14T00:21:23.923Z,4.10
2022-11-14T00:23:52.625Z,3.90
2022-11-14T00:26:21.734Z,3.90
2022-11-14T00:28:50.439Z,4.00
2022-11-14T00:31:19.140Z,4.10
2022-11-14T00:33:49.262Z,4.10
2022-11-14T00:36:17.979Z,4.00
2022-11-14T00:38:46.677Z,4.10
2022-11-14T00:41:15.327Z,4.10
2022-11-14T00:43:44.005Z,4.10
2022-11-14T00:46:12.633Z,4.30
2022-11-14T00:48:41.468Z,4.30
2022-11-14T00:51:12.040Z,4.20
2022-11-14T00:53:40.753Z,4.10
2022-11-14T00:56:09.570Z,4.10
2022-11-14T00:58:38.227Z,4.10
2022-11-14T01:01:07.315Z,4.30
2022-11-14T01:03:36.122Z,4.40
2022-11-14T01:06:07.407Z,4.40
2022-11-14T01:08:37.720Z,4.30
2022-11-14T01:11:12.040Z,4.40
2022-11-14T01:13:41.137Z,4.40
2022-11-14T01:16:10.618Z,4.40
2022-11-14T01:18:40.477Z,4.40
2022-11-14T01:21:11.623Z,4.40
2022-11-14T01:23:42.066Z,4.50
2022-11-14T01:26:13.388Z,4.60
2022-11-14T01:28:42.793Z,4.60
2022-11-14T01:31:13.007Z,4.50
2022-11-14T01:33:41.677Z,4.30
2022-11-14T01:36:11.499Z,4.20
2022-11-14T01:38:41.633Z,4.20
2022-11-14T01:41:14.075Z,4.20
2022-11-14T01:43:43.586Z,4.20
2022-11-14T01:46:16.478Z,4.20
2022-11-14T01:48:49.425Z,4.20
2022-11-14T01:51:25.297Z,4.30
2022-11-14T01:53:58.210Z,4.40
2022-11-14T01:56:29.634Z,4.30
2022-11-14T01:59:03.532Z,4.40
2022-11-14T02:01:35.450Z,4.40
2022-11-14T02:04:06.931Z,4.30
2022-11-14T02:06:37.489Z,4.20
2022-11-14T02:09:09.175Z,4.30
2022-11-14T02:11:41.438Z,4.30
2022-11-14T02:14:10.238Z,4.40
2022-11-14T02:16:40.927Z,4.40
2022-11-14T02:19:10.425Z,4.40
2022-11-14T02:21:40.491Z,4.20
2022-11-14T02:24:11.568Z,4.20
2022-11-14T02:26:40.641Z,4.10
2022-11-14T02:29:11.155Z,4.10
2022-11-14T02:31:40.281Z,4.10
2022-11-14T02:34:08.959Z,4.30
2022-11-14T02:36:37.618Z,4.30
2022-11-14T02:39:07.798Z,4.30
2022-11-14T02:41:36.474Z,4.30
2022-11-14T02:44:05.482Z,4.30
2022-11-14T02:46:34.144Z,4.30
2022-11-14T02:49:02.787Z,4.30
2022-11-14T02:51:31.382Z,4.30
2022-11-14T02:54:00.003Z,4.40
2022-11-14T02:56:30.650Z,4.40
2022-11-14T02:58:59.380Z,4.30
2022-11-14T03:01:28.080Z,4.30
2022-11-14T03:03:56.789Z,4.30
2022-11-14T03:06:25.917Z,4.40
2022-11-14T03:08:54.555Z,4.30
2022-11-14T03:11:23.289Z,4.30
2022-11-14T03:13:53.382Z,4.40
2022-11-14T03:16:22.043Z,4.30
2022-11-14T03:18:50.718Z,4.20
2022-11-14T03:21:21.830Z,4.30
2022-11-14T03:23:50.786Z,4.40
2022-11-14T03:26:20.736Z,4.50
2022-11-14T03:28:49.320Z,4.70
2022-11-14T03:31:19.362Z,4.50
2022-11-14T03:33:48.043Z,4.50
2022-11-14T03:36:16.767Z,4.50
2022-11-14T03:38:45.515Z,4.60
2022-11-14T03:41:14.110Z,4.50
2022-11-14T03:43:42.904Z,4.50
2022-11-14T03:46:11.510Z,4.50
2022-11-14T03:48:41.600Z,4.50
2022-11-14T03:51:10.214Z,4.50
2022-11-14T03:53:38.934Z,4.60
2022-11-14T03:56:08.055Z,4.70
2022-11-14T03:58:36.749Z,4.70
2022-11-14T04:01:05.545Z,4.70
2022-11-14T04:03:34.357Z,4.70
2022-11-14T04:06:04.618Z,4.80
2022-11-14T04:08:34.522Z,4.70
2022-11-14T04:11:03.174Z,4.60
2022-11-14T04:13:31.835Z,4.70
2022-11-14T04:16:01.329Z,4.60
2022-11-14T04:18:30.482Z,4.70
2022-11-14T04:20:59.478Z,4.80
2022-11-14T04:23:29.538Z,4.90
2022-11-14T04:25:58.371Z,4.90
2022-11-14T04:28:27.278Z,4.90
2022-11-14T04:30:56.195Z,4.90
2022-11-14T04:33:24.900Z,4.80
2022-11-14T04:35:53.561Z,4.80
2022-11-14T04:38:22.222Z,4.70
2022-11-14T04:40:53.135Z,4.80
2022-11-14T04:43:22.511Z,4.80
2022-11-14T04:45:51.149Z,4.80
2022-11-14T04:48:19.835Z,4.80
2022-11-14T04:50:48.646Z,4.90
2022-11-14T04:53:17.313Z,4.90
2022-11-14T04:55:47.112Z,4.80
2022-11-14T04:58:17.220Z,4.90
2022-11-14T05:00:45.848Z,5.00
2022-11-14T05:03:14.439Z,5.00
2022-11-14T05:05:43.382Z,5.00
2022-11-14T05:08:12.003Z,5.00
2022-11-14T05:10:44.699Z,4.90
2022-11-14T05:13:13.798Z,4.90
2022-11-14T05:15:43.908Z,5.00
2022-11-14T05:18:12.673Z,5.10
2022-11-14T05:20:41.357Z,5.10
2022-11-14T05:23:19.958Z,5.10
2022-11-14T05:25:48.704Z,5.10
2022-11-14T05:28:17.427Z,5.20
2022-11-14T05:30:47.543Z,5.10
2022-11-14T05:33:16.299Z,5.10
2022-11-14T05:35:44.974Z,5.20
2022-11-14T05:38:13.661Z,5.20
2022-11-14T05:40:42.311Z,5.10
2022-11-14T05:43:11.034Z,5.10
2022-11-14T05:45:39.743Z,5.20
2022-11-14T05:48:09.941Z,5.30
2022-11-14T05:50:38.601Z,5.30
2022-11-14T05:53:07.250Z,5.30
2022-11-14T05:55:35.993Z,5.30
2022-11-14T05:58:04.911Z,5.10
2022-11-14T06:00:39.480Z,5.10
2022-11-14T06:03:13.947Z,5.20
2022-11-14T06:05:43.043Z,5.20
2022-11-14T06:08:11.903Z,5.20
2022-11-14T06:10:40.739Z,5.10
2022-11-14T06:13:09.510Z,5.00
2022-11-14T06:15:38.175Z,5.00
2022-11-14T06:18:06.874Z,5.10
2022-11-14T06:20:38.076Z,5.00
2022-11-14T06:23:06.780Z,5.00
2022-11-14T06:25:35.571Z,5.10
2022-11-14T06:28:04.262Z,5.00
2022-11-14T06:30:33.145Z,5.00
2022-11-14T06:33:01.891Z,4.90
2022-11-14T06:35:33.316Z,4.80
2022-11-14T06:38:03.508Z,4.80
2022-11-14T06:40:32.213Z,4.90
2022-11-14T06:43:00.927Z,5.00
2022-11-14T06:45:29.830Z,5.00
2022-11-14T06:48:01.129Z,5.00
2022-11-14T06:50:29.983Z,4.90
2022-11-14T06:52:59.555Z,5.00
2022-11-14T06:55:29.657Z,5.00
2022-11-14T06:57:58.362Z,5.00
2022-11-14T07:00:27.018Z,5.10
2022-11-14T07:02:55.782Z,5.20
2022-11-14T07:05:24.580Z,5.20
2022-11-14T07:07:53.484Z,5.20
2022-11-14T07:10:22.155Z,5.30
2022-11-14T07:12:52.279Z,5.30
2022-11-14T07:15:21.056Z,5.40
2022-11-14T07:17:49.859Z,5.50
2022-11-14T07:20:19.806Z,5.60
2022-11-14T07:22:49.047Z,5.60
2022-11-14T07:25:17.948Z,5.40
2022-11-14T07:27:46.890Z,5.40
2022-11-14T07:30:18.004Z,5.30
2022-11-14T07:32:46.818Z,5.40
2022-11-14T07:35:15.981Z,5.40
2022-11-14T07:37:44.954Z,5.50
2022-11-14T07:40:14.269Z,5.50
2022-11-14T07:42:43.073Z,5.50
2022-11-14T07:45:12.878Z,5.50
2022-11-14T07:47:42.936Z,5.60
2022-11-14T07:50:15.185Z,5.50
2022-11-14T07:52:52.551Z,5.60
2022-11-14T07:55:21.741Z,5.60
2022-11-14T07:57:53.633Z,5.70
2022-11-14T08:00:23.253Z,5.80
2022-11-14T08:02:53.640Z,5.80
2022-11-14T08:05:22.583Z,5.80
2022-11-14T08:07:52.799Z,5.80
2022-11-14T08:10:21.742Z,5.80
2022-11-14T08:13:24.865Z,5.90
2022-11-14T08:15:47.499Z,5.90
2022-11-14T08:18:17.653Z,6.00
2022-11-14T08:20:46.459Z,6.00
2022-11-14T08:23:15.321Z,6.00
2022-11-14T08:25:44.278Z,6.20
2022-11-14T08:28:12.984Z,6.30
2022-11-14T08:30:41.754Z,6.50
2022-11-14T08:33:10.761Z,6.60
2022-11-14T08:35:40.913Z,6.60
2022-11-14T08:38:09.948Z,6.50
2022-11-14T08:40:38.878Z,6.50
2022-11-14T08:43:07.581Z,6.50
2022-11-14T08:45:36.306Z,6.40
2022-11-14T08:48:05.962Z,6.40
2022-11-14T08:50:34.753Z,6.40
2022-11-14T08:53:04.877Z,6.50
2022-11-14T08:55:33.625Z,6.60
2022-11-14T08:58:02.347Z,6.60
2022-11-14T09:00:31.098Z,6.80
2022-11-14T09:02:59.840Z,6.70
2022-11-14T09:05:28.631Z,6.60
2022-11-14T09:07:57.336Z,6.70
2022-11-14T09:10:27.701Z,6.70
2022-11-14T09:12:58.062Z,6.70
2022-11-14T09:15:28.299Z,6.80
2022-11-14T09:17:57.399Z,6.80
2022-11-14T09:20:32.384Z,6.90
2022-11-14T09:23:03.460Z,7.00
2022-11-14T09:25:33.797Z,6.90
2022-11-14T09:28:07.142Z,6.80
2022-11-14T09:30:37.034Z,6.70
2022-11-14T09:33:11.422Z,6.90
2022-11-14T09:35:41.498Z,7.00
2022-11-14T09:38:12.314Z,7.00
2022-11-14T09:40:53.939Z,7.20
2022-11-14T09:43:44.042Z,7.40
2022-11-14T09:46:22.271Z,7.40
2022-11-14T09:48:53.162Z,7.60
2022-11-14T09:51:23.950Z,7.70
2022-11-14T09:53:57.616Z,7.60
2022-11-14T09:56:28.740Z,7.50
2022-11-14T09:58:57.993Z,7.30
2022-11-14T10:01:38.131Z,7.10
2022-11-14T10:04:20.733Z,7.00
2022-11-14T10:06:58.123Z,7.10
2022-11-14T10:09:50.227Z,7.10
2022-11-14T10:12:26.556Z,7.40
2022-11-14T10:15:23.929Z,7.60
2022-11-14T10:18:16.080Z,7.70
2022-11-14T10:20:49.682Z,7.80
2022-11-14T10:23:30.582Z,7.80
2022-11-14T10:26:10.643Z,7.80
2022-11-14T10:28:56.100Z,7.90
2022-11-14T10:31:36.765Z,8.10
2022-11-14T10:34:10.474Z,8.30
2022-11-14T10:36:50.775Z,8.50
2022-11-14T10:39:24.685Z,8.40
2022-11-14T10:42:00.905Z,8.40
2022-11-14T10:44:39.665Z,8.40
2022-11-14T10:47:14.095Z,8.30
2022-11-14T10:49:43.903Z,8.40
2022-11-14T10:52:16.537Z,8.20
2022-11-14T10:54:48.933Z,8.40
2022-11-14T10:57:19.571Z,8.40
2022-11-14T10:59:50.428Z,8.30
2022-11-14T11:02:19.174Z,8.50
2022-11-14T11:04:47.871Z,8.80
2022-11-14T11:07:42.814Z,8.90
2022-11-14T11:10:39.908Z,9.20
2022-11-14T11:13:12.959Z,9.30
2022-11-14T11:15:44.172Z,9.20
2022-11-14T11:18:34.685Z,9.60
2022-11-14T11:21:09.962Z,9.80
2022-11-14T11:23:49.084Z,10.50
2022-11-14T11:26:24.640Z,11.70
2022-11-14T11:29:10.260Z,13.10
2022-11-14T11:31:54.268Z,14.50
2022-11-14T11:34:27.059Z,14.80
2022-11-14T11:37:00.357Z,15.00
2022-11-14T11:39:32.385Z,15.80
2022-11-14T11:42:09.843Z,17.00
2022-11-14T11:44:45.188Z,18.00
2022-11-14T11:47:18.619Z,18.00
2022-11-14T11:49:53.762Z,18.20
2022-11-14T11:52:32.689Z,18.40
2022-11-14T11:55:12.938Z,18.40
2022-11-14T11:57:45.619Z,18.50
2022-11-14T12:00:18.788Z,19.00
2022-11-14T12:02:51.040Z,19.10
2022-11-14T12:05:26.244Z,19.70
2022-11-14T12:08:04.472Z,20.50
2022-11-14T12:10:37.528Z,21.10
2022-11-14T12:13:34.264Z,21.40
2022-11-14T12:16:17.634Z,21.10
2022-11-14T12:19:23.716Z,20.70
2022-11-14T12:22:07.898Z,20.60
2022-11-14T12:24:54.850Z,21.00
2022-11-14T12:27:45.805Z,21.20
2022-11-14T12:30:19.067Z,20.90
2022-11-14T12:32:53.114Z,20.50
2022-11-14T12:35:26.823Z,20.00
2022-11-14T12:37:58.640Z,20.20
2022-11-14T12:40:31.065Z,20.70
2022-11-14T12:43:01.076Z,20.90
2022-11-14T12:45:58.952Z,21.20
2022-11-14T12:48:38.935Z,21.10
2022-11-14T12:51:52.943Z,20.90
2022-11-14T12:54:46.991Z,21.20
2022-11-14T12:57:39.323Z,20.80
2022-11-14T13:00:10.565Z,20.00
2022-11-14T13:03:16.097Z,18.80
2022-11-14T13:05:59.198Z,18.00
2022-11-14T13:08:56.615Z,17.90
2022-11-14T13:12:00.885Z,18.00
2022-11-14T13:14:48.448Z,18.70
2022-11-14T13:17:44.805Z,19.50
2022-11-14T13:20:47.982Z,20.00
2022-11-14T13:24:16.312Z,20.50
2022-11-14T13:26:50.503Z,20.40
2022-11-14T13:29:56.535Z,19.90
2022-11-14T13:33:08.146Z,19.60
2022-11-14T13:36:04.861Z,19.50
2022-11-14T13:39:12.104Z,19.30
2022-11-14T13:42:20.582Z,19.40
2022-11-14T13:45:22.944Z,19.20
2022-11-14T13:48:37.038Z,19.10
2022-11-14T13:51:41.764Z,18.40
2022-11-14T13:54:36.461Z,18.20
2022-11-14T13:57:52.087Z,17.60
2022-11-14T14:00:27.406Z,16.90
2022-11-14T14:03:34.289Z,16.50
2022-11-14T14:06:32.626Z,16.60
2022-11-14T14:09:23.495Z,16.00
2022-11-14T14:12:17.170Z,15.40
2022-11-14T14:15:07.283Z,15.30
2022-11-14T14:17:52.671Z,15.40
2022-11-14T14:20:39.195Z,15.50
2022-11-14T14:23:21.851Z,15.30
2022-11-14T14:26:00.816Z,15.30
2022-11-14T14:28:41.623Z,15.20
2022-11-14T14:31:20.162Z,15.10
2022-11-14T14:34:04.353Z,15.00
2022-11-14T14:36:33.096Z,15.00
2022-11-14T14:39:20.891Z,15.00
2022-11-14T14:41:51.090Z,15.10
2022-11-14T14:44:24.889Z,14.90
2022-11-14T14:46:55.654Z,14.50
2022-11-14T14:49:27.196Z,14.20
2022-11-14T14:51:58.765Z,13.90
2022-11-14T14:54:30.720Z,13.60
2022-11-14T14:57:03.028Z,13.60
2022-11-14T14:59:33.652Z,13.60
2022-11-14T15:02:04.426Z,13.40
2022-11-14T15:04:33.314Z,12.90
2022-11-14T15:07:03.306Z,12.70
2022-11-14T15:09:32.629Z,12.50
2022-11-14T15:12:03.074Z,12.30
2022-11-14T15:14:35.971Z,12.10
2022-11-14T15:17:06.570Z,11.90
2022-11-14T15:19:41.370Z,11.90
2022-11-14T15:22:25.890Z,12.00
2022-11-14T15:25:18.409Z,12.10
2022-11-14T15:27:49.868Z,11.90
2022-11-14T15:30:26.245Z,11.90
2022-11-14T15:32:59.230Z,11.90
2022-11-14T15:35:32.535Z,11.90
2022-11-14T15:38:41.892Z,11.80
2022-11-14T15:41:23.162Z,11.70
2022-11-14T15:43:53.872Z,11.50
2022-11-14T15:46:43.757Z,11.40
2022-11-14T15:49:25.627Z,11.40
2022-11-14T15:51:57.334Z,11.30
2022-11-14T15:54:28.780Z,11.30
2022-11-14T15:56:59.434Z,11.20
2022-11-14T15:59:30.759Z,11.10
2022-11-14T16:02:04.655Z,11.00
2022-11-14T16:04:37.291Z,10.90
2022-11-14T16:07:06.295Z,10.80
2022-11-14T16:09:35.169Z,10.80
2022-11-14T16:12:03.926Z,10.70
2022-11-14T16:14:33.848Z,10.70
2022-11-14T16:17:03.252Z,10.50
2022-11-14T16:19:35.611Z,10.40
2022-11-14T16:22:04.504Z,10.20
2022-11-14T16:24:34.390Z,10.10
2022-11-14T16:27:03.959Z,9.90
2022-11-14T16:29:32.750Z,9.80
2022-11-14T16:32:01.401Z,9.80
2022-11-14T16:34:30.096Z,9.80
2022-11-14T16:37:03.252Z,9.90
2022-11-14T16:39:52.114Z,10.00
2022-11-14T16:42:20.791Z,10.00
2022-11-14T16:44:50.965Z,10.10
2022-11-14T16:47:21.971Z,10.10
2022-11-14T16:49:51.725Z,10.10
2022-11-14T16:52:22.141Z,10.00
2022-11-14T16:54:51.045Z,9.90
2022-11-14T16:57:19.903Z,9.70
2022-11-14T16:59:48.775Z,9.60
2022-11-14T17:02:18.382Z,9.60
2022-11-14T17:04:47.868Z,9.50
2022-11-14T17:07:20.293Z,9.60
2022-11-14T17:09:53.340Z,9.50
2022-11-14T17:12:22.171Z,9.50
2022-11-14T17:14:51.061Z,9.50
2022-11-14T17:17:19.907Z,9.40
2022-11-14T17:19:49.037Z,9.50
2022-11-14T17:22:20.000Z,9.50
2022-11-14T17:24:49.019Z,9.50
2022-11-14T17:27:19.614Z,9.50
2022-11-14T17:29:48.568Z,9.40
2022-11-14T17:32:17.335Z,9.40
2022-11-14T17:34:46.065Z,9.40
2022-11-14T17:37:14.766Z,9.30
2022-11-14T17:39:43.544Z,9.10
2022-11-14T17:42:12.325Z,9.10
2022-11-14T17:44:42.701Z,9.10
2022-11-14T17:47:11.948Z,9.00
2022-11-14T17:49:41.877Z,9.00
2022-11-14T17:52:10.820Z,8.90
2022-11-14T17:54:43.107Z,8.80
2022-11-14T17:57:13.788Z,8.90
2022-11-14T17:59:44.087Z,8.80
2022-11-14T18:02:17.913Z,8.80
2022-11-14T18:04:47.732Z,8.60
2022-11-14T18:07:18.125Z,8.50
2022-11-14T18:09:46.980Z,8.40
2022-11-14T18:12:16.019Z,8.30
2022-11-14T18:14:46.583Z,8.30
2022-11-14T18:17:15.897Z,8.40
2022-11-14T18:19:45.276Z,8.40
2022-11-14T18:22:14.023Z,8.40
2022-11-14T18:24:47.908Z,8.50
2022-11-14T18:27:17.568Z,8.40
2022-11-14T18:29:48.529Z,8.10
2022-11-14T18:32:17.690Z,8.10
2022-11-14T18:34:46.793Z,8.00
2022-11-14T18:37:15.670Z,8.10
2022-11-14T18:39:44.693Z,8.10
2022-11-14T18:42:13.778Z,8.20
2022-11-14T18:44:43.402Z,8.20
2022-11-14T18:47:24.420Z,8.10
2022-11-14T18:49:58.646Z,8.10
2022-11-14T18:52:27.883Z,8.00
2022-11-14T18:54:56.673Z,7.90
2022-11-14T18:57:26.461Z,7.90
2022-11-14T19:00:00.300Z,7.80
2022-11-14T19:02:30.979Z,7.80
2022-11-14T19:05:00.190Z,7.60
2022-11-14T19:07:30.609Z,7.60
2022-11-14T19:10:00.884Z,7.60
2022-11-14T19:12:30.572Z,7.60
2022-11-14T19:15:00.735Z,7.60
2022-11-14T19:17:31.482Z,7.60
2022-11-14T19:20:01.333Z,7.50
2022-11-14T19:22:33.243Z,7.50
2022-11-14T19:25:03.345Z,7.40
2022-11-14T19:27:36.137Z,7.40
2022-11-14T19:30:06.247Z,7.40
2022-11-14T19:32:37.423Z,7.40
2022-11-14T19:35:07.245Z,7.50
2022-11-14T19:37:36.093Z,7.40
2022-11-14T19:40:06.616Z,7.30
2022-11-14T19:42:36.344Z,7.30
2022-11-14T19:45:05.942Z,7.30
2022-11-14T19:47:37.599Z,7.30
2022-11-14T19:50:07.301Z,7.30
2022-11-14T19:52:36.395Z,7.30
2022-11-14T19:55:05.847Z,7.20
2022-11-14T19:57:35.061Z,7.20
2022-11-14T20:00:04.002Z,7.20
2022-11-14T20:02:33.772Z,7.30
2022-11-14T20:05:04.459Z,7.30
2022-11-14T20:07:37.657Z,7.30
2022-11-14T20:10:09.498Z,7.20
2022-11-14T20:12:39.177Z,7.20
2022-11-14T20:15:11.772Z,7.20
2022-11-14T20:17:41.170Z,7.10
2022-11-14T20:20:13.443Z,7.10
2022-11-14T20:22:42.964Z,7.10
2022-11-14T20:25:16.869Z,7.00
2022-11-14T20:27:46.111Z,7.00
2022-11-14T20:30:15.568Z,7.00
2022-11-14T20:32:45.605Z,7.00
2022-11-14T20:35:16.737Z,7.00
2022-11-14T20:37:46.463Z,7.00
2022-11-14T20:40:15.509Z,7.00
2022-11-14T20:42:48.695Z,6.90
2022-11-14T20:45:20.269Z,6.80
2022-11-14T20:47:51.112Z,6.80
2022-11-14T20:50:29.026Z,6.70
2022-11-14T20:53:08.528Z,6.60
2022-11-14T20:55:45.665Z,6.60
2022-11-14T20:58:17.981Z,6.60
2022-11-14T21:00:47.816Z,6.60
2022-11-14T21:03:20.871Z,6.60
2022-11-14T21:06:01.459Z,6.60
2022-11-14T21:08:47.713Z,6.60
2022-11-14T21:11:31.564Z,6.40
2022-11-14T21:14:10.088Z,6.40
2022-11-14T21:16:40.799Z,6.40
2022-11-14T21:19:09.531Z,6.30
2022-11-14T21:21:40.805Z,6.20
2022-11-14T21:24:12.082Z,6.20
2022-11-14T21:26:41.647Z,6.20
2022-11-14T21:29:35.428Z,6.30
2022-11-14T21:32:12.365Z,6.30
2022-11-14T21:34:41.794Z,6.30
2022-11-14T21:37:12.137Z,6.20
2022-11-14T21:39:40.919Z,6.00
2022-11-14T21:42:12.944Z,5.90
2022-11-14T21:44:44.897Z,6.00
2022-11-14T21:47:13.934Z,6.10
2022-11-14T21:49:43.067Z,6.00
2022-11-14T21:52:13.394Z,6.10
2022-11-14T21:54:42.395Z,6.10
2022-11-14T21:57:11.350Z,6.00
2022-11-14T21:59:40.304Z,6.10
2022-11-14T22:02:31.352Z,6.10
2022-11-14T22:05:00.509Z,6.00
2022-11-14T22:07:30.968Z,6.00
2022-11-14T22:09:59.816Z,5.90
2022-11-14T22:12:28.622Z,5.90
2022-11-14T22:14:57.371Z,5.90
2022-11-14T22:17:27.613Z,5.90
2022-11-14T22:19:56.264Z,5.90
2022-11-14T22:22:25.171Z,5.80
2022-11-14T22:24:55.518Z,5.80
2022-11-14T22:27:24.336Z,5.80
2022-11-14T22:29:53.480Z,5.80
2022-11-14T22:32:22.419Z,5.80
2022-11-14T22:34:51.071Z,5.70
2022-11-14T22:37:20.235Z,5.70
2022-11-14T22:39:48.976Z,5.70
2022-11-14T22:42:19.839Z,5.70
2022-11-14T22:44:49.222Z,5.70
2022-11-14T22:47:18.187Z,5.70
2022-11-14T22:49:46.962Z,5.70
2022-11-14T22:52:15.844Z,5.70
2022-11-14T22:54:44.805Z,5.60
2022-11-14T22:57:14.443Z,5.60
2022-11-14T22:59:44.712Z,5.50
2022-11-14T23:02:13.402Z,5.50
2022-11-14T23:04:42.040Z,5.50
2022-11-14T23:07:10.808Z,5.60
2022-11-14T23:09:39.643Z,5.60
2022-11-14T23:12:08.565Z,5.50
2022-11-14T23:14:37.409Z,5.50
2022-11-14T23:17:07.729Z,5.50
2022-11-14T23:19:36.895Z,5.30
2022-11-14T23:22:05.685Z,5.30
2022-11-14T23:24:34.373Z,5.30
2022-11-14T23:27:03.038Z,5.30
2022-11-14T23:33:05.206Z,5.40
2022-11-14T23:35:33.989Z,5.40
2022-11-14T23:38:05.228Z,5.40
2022-11-14T23:43:48.509Z,5.40
2022-11-14T23:46:17.333Z,5.40
2022-11-14T23:48:47.634Z,5.30
2022-11-14T23:51:17.709Z,5.30
2022-11-14T23:53:47.115Z,5.30
2022-11-14T23:56:17.220Z,5.30
2022-11-14T23:58:46.031Z,5.30
